sensor_id;sensor_type;location;lat;lon;timestamp;pressure;altitude;pressure_sealevel;temperature;humidity
59987;BME280;46181;51.498;5.392;2023-02-28T00:02:33;102992.5;;;4.61;50.76172
59987;BME280;46181;51.498;5.392;2023-02-28T00:07:03;102987.4;;;4.56;50.82422
59987;BME280;46181;51.498;5.392;2023-02-28T00:11:33;102999;;;4.55;51.01172
59987;BME280;46181;51.498;5.392;2023-02-28T00:16:12;102992.5;;;4.44;51.13184
59987;BME280;46181;51.498;5.392;2023-02-28T00:20:33;102990.6;;;4.45;51.02148
59987;BME280;46181;51.498;5.392;2023-02-28T00:25:03;102989.3;;;4.36;51.07715
59987;BME280;46181;51.498;5.392;2023-02-28T00:29:33;102995.7;;;4.31;51.13867
59987;BME280;46181;51.498;5.392;2023-02-28T00:34:03;102987.9;;;4.25;51.19922
59987;BME280;46181;51.498;5.392;2023-02-28T00:38:33;102995.8;;;4.21;51.26074
59987;BME280;46181;51.498;5.392;2023-02-28T00:43:03;102992.6;;;4.15;51.33105
59987;BME280;46181;51.498;5.392;2023-02-28T00:47:34;102991.9;;;4.13;51.47266
59987;BME280;46181;51.498;5.392;2023-02-28T00:52:03;102989.5;;;4.14;51.71777
59987;BME280;46181;51.498;5.392;2023-02-28T00:56:33;102989.9;;;4.16;51.77637
59987;BME280;46181;51.498;5.392;2023-02-28T01:01:04;102986.4;;;4.14;51.72949
59987;BME280;46181;51.498;5.392;2023-02-28T01:05:33;102989.3;;;4.13;51.72852
59987;BME280;46181;51.498;5.392;2023-02-28T01:10:04;102994.5;;;4.15;51.78613
59987;BME280;46181;51.498;5.392;2023-02-28T01:14:33;103004.9;;;4.14;51.81738
59987;BME280;46181;51.498;5.392;2023-02-28T01:19:03;103006.5;;;4.12;51.78223
59987;BME280;46181;51.498;5.392;2023-02-28T01:23:33;103010.3;;;4.08;51.77734
59987;BME280;46181;51.498;5.392;2023-02-28T01:28:04;103005.1;;;4.02;51.8584
59987;BME280;46181;51.498;5.392;2023-02-28T01:32:35;103010.8;;;4;51.91211
59987;BME280;46181;51.498;5.392;2023-02-28T01:37:03;103009.3;;;3.96;51.90625
59987;BME280;46181;51.498;5.392;2023-02-28T01:41:35;103015.8;;;3.93;51.93652
59987;BME280;46181;51.498;5.392;2023-02-28T01:46:04;103007.6;;;3.91;52.0459
59987;BME280;46181;51.498;5.392;2023-02-28T01:50:43;102992.3;;;3.95;52.08398
59987;BME280;46181;51.498;5.392;2023-02-28T01:55:05;102993.3;;;3.98;52.10938
59987;BME280;46181;51.498;5.392;2023-02-28T01:59:37;102986.1;;;4.01;52.13574
59987;BME280;46181;51.498;5.392;2023-02-28T02:04:05;102984.5;;;4.04;52.00684
59987;BME280;46181;51.498;5.392;2023-02-28T02:08:35;102978.7;;;4;52.04688
59987;BME280;46181;51.498;5.392;2023-02-28T02:13:18;102975.4;;;3.93;52.26953
59987;BME280;46181;51.498;5.392;2023-02-28T02:17:40;102971.8;;;4;52.22266
59987;BME280;46181;51.498;5.392;2023-02-28T02:26:54;102967.6;;;4.03;52.46094
59987;BME280;46181;51.498;5.392;2023-02-28T02:35:38;102963.9;;;4.15;52.2959
59987;BME280;46181;51.498;5.392;2023-02-28T02:40:10;102958.9;;;4.18;52.35645
59987;BME280;46181;51.498;5.392;2023-02-28T02:44:38;102975.8;;;4.27;52.28906
59987;BME280;46181;51.498;5.392;2023-02-28T02:49:06;102968;;;4.31;52.29492
59987;BME280;46181;51.498;5.392;2023-02-28T02:53:40;102976.7;;;4.38;52.31348
59987;BME280;46181;51.498;5.392;2023-02-28T02:58:07;102977.2;;;4.5;52.22852
59987;BME280;46181;51.498;5.392;2023-02-28T03:02:34;102976;;;4.56;52.125
59987;BME280;46181;51.498;5.392;2023-02-28T03:07:03;102975.5;;;4.64;52.05664
59987;BME280;46181;51.498;5.392;2023-02-28T03:11:33;102961.8;;;4.67;51.98145
59987;BME280;46181;51.498;5.392;2023-02-28T03:16:16;102969.2;;;4.59;52.06152
59987;BME280;46181;51.498;5.392;2023-02-28T03:20:40;102967.3;;;4.61;52.0625
59987;BME280;46181;51.498;5.392;2023-02-28T03:25:06;102965.9;;;4.66;51.99316
59987;BME280;46181;51.498;5.392;2023-02-28T03:29:37;102961.5;;;4.67;51.97168
59987;BME280;46181;51.498;5.392;2023-02-28T03:34:08;102967.5;;;4.68;52.07129
59987;BME280;46181;51.498;5.392;2023-02-28T03:38:38;102969.3;;;4.75;52.13672
59987;BME280;46181;51.498;5.392;2023-02-28T03:43:07;102970.3;;;4.87;52.01758
59987;BME280;46181;51.498;5.392;2023-02-28T03:47:37;102970.7;;;4.94;51.8584
59987;BME280;46181;51.498;5.392;2023-02-28T03:52:05;102967.1;;;5.01;51.72266
59987;BME280;46181;51.498;5.392;2023-02-28T03:56:37;102974.2;;;5.09;51.62109
59987;BME280;46181;51.498;5.392;2023-02-28T04:01:07;102974.5;;;5.1;51.49902
59987;BME280;46181;51.498;5.392;2023-02-28T04:05:34;102975.4;;;5.18;51.44238
59987;BME280;46181;51.498;5.392;2023-02-28T04:10:04;102976;;;5.22;51.33594
59987;BME280;46181;51.498;5.392;2023-02-28T04:14:33;102971.2;;;5.27;51.29688
59987;BME280;46181;51.498;5.392;2023-02-28T04:19:04;102968.9;;;5.3;51.28906
59987;BME280;46181;51.498;5.392;2023-02-28T04:23:33;102967.9;;;5.34;51.25
59987;BME280;46181;51.498;5.392;2023-02-28T04:28:03;102978.3;;;5.38;51.09961
59987;BME280;46181;51.498;5.392;2023-02-28T04:32:33;102980;;;5.4;51.0127
59987;BME280;46181;51.498;5.392;2023-02-28T04:37:04;102982.4;;;5.45;50.92871
59987;BME280;46181;51.498;5.392;2023-02-28T04:41:33;102983.7;;;5.48;50.86426
59987;BME280;46181;51.498;5.392;2023-02-28T04:46:04;102989;;;5.49;50.77734
59987;BME280;46181;51.498;5.392;2023-02-28T04:50:33;102991.3;;;5.52;50.68066
59987;BME280;46181;51.498;5.392;2023-02-28T04:55:04;102990.7;;;5.51;50.68945
59987;BME280;46181;51.498;5.392;2023-02-28T04:59:33;102986.5;;;5.52;50.68066
59987;BME280;46181;51.498;5.392;2023-02-28T05:04:04;102989.7;;;5.54;50.69531
59987;BME280;46181;51.498;5.392;2023-02-28T05:08:33;102986.1;;;5.58;50.67578
59987;BME280;46181;51.498;5.392;2023-02-28T05:13:04;102982.2;;;5.57;50.59766
59987;BME280;46181;51.498;5.392;2023-02-28T05:17:33;102994.5;;;5.56;50.5957
59987;BME280;46181;51.498;5.392;2023-02-28T05:22:04;102989.5;;;5.58;50.64258
59987;BME280;46181;51.498;5.392;2023-02-28T05:26:34;103000.4;;;5.59;50.56738
59987;BME280;46181;51.498;5.392;2023-02-28T05:31:04;102999.8;;;5.61;50.52441
59987;BME280;46181;51.498;5.392;2023-02-28T05:35:34;103003.1;;;5.64;50.49316
59987;BME280;46181;51.498;5.392;2023-02-28T05:40:04;103003.7;;;5.68;50.54297
59987;BME280;46181;51.498;5.392;2023-02-28T05:44:33;103003.2;;;5.69;50.47754
59987;BME280;46181;51.498;5.392;2023-02-28T05:49:03;103001.4;;;5.71;50.5459
59987;BME280;46181;51.498;5.392;2023-02-28T05:53:34;103003;;;5.65;50.48438
59987;BME280;46181;51.498;5.392;2023-02-28T05:58:03;103003.8;;;5.59;50.57813
59987;BME280;46181;51.498;5.392;2023-02-28T06:02:33;103000.9;;;5.57;50.64258
59987;BME280;46181;51.498;5.392;2023-02-28T06:07:03;103002.5;;;5.55;50.63867
59987;BME280;46181;51.498;5.392;2023-02-28T06:11:33;103012.3;;;5.56;50.70703
59987;BME280;46181;51.498;5.392;2023-02-28T06:16:04;103010.3;;;5.54;50.67285
59987;BME280;46181;51.498;5.392;2023-02-28T06:20:34;103016.3;;;5.46;50.69531
59987;BME280;46181;51.498;5.392;2023-02-28T06:25:04;103024.4;;;5.45;50.69434
59987;BME280;46181;51.498;5.392;2023-02-28T06:29:34;103025.1;;;5.47;50.71875
59987;BME280;46181;51.498;5.392;2023-02-28T06:34:04;103028.6;;;5.5;50.7002
59987;BME280;46181;51.498;5.392;2023-02-28T06:38:34;103028.5;;;5.51;50.69043
59987;BME280;46181;51.498;5.392;2023-02-28T06:43:03;103029.2;;;5.53;50.65918
59987;BME280;46181;51.498;5.392;2023-02-28T06:47:34;103020.4;;;5.52;50.6582
59987;BME280;46181;51.498;5.392;2023-02-28T06:52:03;103031.1;;;5.47;50.65137
59987;BME280;46181;51.498;5.392;2023-02-28T06:56:34;103030;;;5.46;50.67383
59987;BME280;46181;51.498;5.392;2023-02-28T07:01:04;103027.5;;;5.44;50.63867
59987;BME280;46181;51.498;5.392;2023-02-28T07:05:33;103036.6;;;5.38;50.75293
59987;BME280;46181;51.498;5.392;2023-02-28T07:10:04;103048;;;5.41;50.79004
59987;BME280;46181;51.498;5.392;2023-02-28T07:19:04;103044.4;;;5.38;50.60742
59987;BME280;46181;51.498;5.392;2023-02-28T07:23:34;103052.5;;;5.37;50.65234
59987;BME280;46181;51.498;5.392;2023-02-28T07:28:04;103057.5;;;5.35;50.65039
59987;BME280;46181;51.498;5.392;2023-02-28T07:32:33;103060.7;;;5.39;50.6875
59987;BME280;46181;51.498;5.392;2023-02-28T07:37:05;103065;;;5.44;50.58203
59987;BME280;46181;51.498;5.392;2023-02-28T07:41:33;103066.2;;;5.54;50.32715
59987;BME280;46181;51.498;5.392;2023-02-28T07:46:05;103070.9;;;5.65;50.14844
59987;BME280;46181;51.498;5.392;2023-02-28T07:50:33;103065.8;;;5.91;50.01172
59987;BME280;46181;51.498;5.392;2023-02-28T07:55:04;103067.3;;;6.3;49.72266
59987;BME280;46181;51.498;5.392;2023-02-28T07:59:34;103067.5;;;6.59;48.84961
59987;BME280;46181;51.498;5.392;2023-02-28T08:04:03;103068.4;;;6.79;48.2002
59987;BME280;46181;51.498;5.392;2023-02-28T08:08:33;103072;;;6.97;46.17285
59987;BME280;46181;51.498;5.392;2023-02-28T08:13:03;103073.9;;;7.12;45.87305
59987;BME280;46181;51.498;5.392;2023-02-28T08:17:33;103065.3;;;7.27;44.92578
59987;BME280;46181;51.498;5.392;2023-02-28T08:22:03;103063.7;;;7.42;44.57129
59987;BME280;46181;51.498;5.392;2023-02-28T08:26:33;103072.7;;;7.39;42.26758
59987;BME280;46181;51.498;5.392;2023-02-28T08:31:04;103071.4;;;7.31;41.49512
59987;BME280;46181;51.498;5.392;2023-02-28T08:35:33;103070.7;;;7.27;41.75098
59987;BME280;46181;51.498;5.392;2023-02-28T08:40:04;103069.3;;;7.28;40.62793
59987;BME280;46181;51.498;5.392;2023-02-28T08:44:34;103064;;;7.28;40.96582
59987;BME280;46181;51.498;5.392;2023-02-28T08:49:04;103061.3;;;7.33;40.83496
59987;BME280;46181;51.498;5.392;2023-02-28T08:53:33;103054.7;;;7.35;40.43164
59987;BME280;46181;51.498;5.392;2023-02-28T08:58:03;103056.8;;;7.4;39.78613
59987;BME280;46181;51.498;5.392;2023-02-28T09:02:33;103059.1;;;7.51;39.59375
59987;BME280;46181;51.498;5.392;2023-02-28T09:07:03;103057.7;;;7.62;39.2793
59987;BME280;46181;51.498;5.392;2023-02-28T09:11:34;103070.3;;;7.73;38.86035
59987;BME280;46181;51.498;5.392;2023-02-28T09:16:06;103063.6;;;7.76;37.53516
59987;BME280;46181;51.498;5.392;2023-02-28T09:20:33;103067.9;;;7.81;36.86523
59987;BME280;46181;51.498;5.392;2023-02-28T09:25:04;103057;;;7.9;36.1416
59987;BME280;46181;51.498;5.392;2023-02-28T09:29:34;103057.6;;;7.89;35.50977
59987;BME280;46181;51.498;5.392;2023-02-28T09:34:07;103069.4;;;7.94;34.39844
59987;BME280;46181;51.498;5.392;2023-02-28T09:38:34;103071.7;;;7.92;34.33008
59987;BME280;46181;51.498;5.392;2023-02-28T09:43:05;103072.8;;;7.92;33.7207
59987;BME280;46181;51.498;5.392;2023-02-28T09:47:36;103064.7;;;7.96;33.58887
59987;BME280;46181;51.498;5.392;2023-02-28T09:52:06;103060.2;;;8.01;33.43457
59987;BME280;46181;51.498;5.392;2023-02-28T09:56:37;103062.4;;;8.06;32.2666
59987;BME280;46181;51.498;5.392;2023-02-28T10:01:09;103058;;;8.09;32.26855
59987;BME280;46181;51.498;5.392;2023-02-28T10:05:35;103056;;;8.16;32.13867
59987;BME280;46181;51.498;5.392;2023-02-28T10:10:07;103052.5;;;8.18;32.16309
59987;BME280;46181;51.498;5.392;2023-02-28T10:14:35;103047;;;8.24;31.44434
59987;BME280;46181;51.498;5.392;2023-02-28T10:19:13;103058.1;;;8.23;31.08301
59987;BME280;46181;51.498;5.392;2023-02-28T10:23:35;103050.3;;;8.27;30.90527
59987;BME280;46181;51.498;5.392;2023-02-28T10:28:10;103038.6;;;8.29;30.86133
59987;BME280;46181;51.498;5.392;2023-02-28T10:32:35;103039.5;;;8.39;30.6875
59987;BME280;46181;51.498;5.392;2023-02-28T10:37:04;103039.1;;;8.41;30.62207
59987;BME280;46181;51.498;5.392;2023-02-28T10:41:40;103030.3;;;8.5;30.17578
59987;BME280;46181;51.498;5.392;2023-02-28T10:46:13;103042.6;;;8.52;30.32422
59987;BME280;46181;51.498;5.392;2023-02-28T10:50:43;103024.2;;;8.47;30.07227
59987;BME280;46181;51.498;5.392;2023-02-28T10:55:24;103024.5;;;8.49;30.31152
59987;BME280;46181;51.498;5.392;2023-02-28T10:59:39;103021.2;;;8.64;30.29883
59987;BME280;46181;51.498;5.392;2023-02-28T11:04:04;103031.4;;;8.63;29.72266
59987;BME280;46181;51.498;5.392;2023-02-28T11:08:34;103013.8;;;8.7;29.8623
59987;BME280;46181;51.498;5.392;2023-02-28T11:13:06;103015.5;;;8.79;30.24121
59987;BME280;46181;51.498;5.392;2023-02-28T11:17:35;103013.2;;;8.83;30.29004
59987;BME280;46181;51.498;5.392;2023-02-28T11:22:07;103009.2;;;8.88;30.54199
59987;BME280;46181;51.498;5.392;2023-02-28T11:26:46;103010.5;;;8.86;30.14453
59987;BME280;46181;51.498;5.392;2023-02-28T11:31:20;102997.2;;;8.87;30.42773
59987;BME280;46181;51.498;5.392;2023-02-28T11:35:36;102992;;;8.94;30.5127
59987;BME280;46181;51.498;5.392;2023-02-28T11:40:04;102994.3;;;9.01;30.63086
59987;BME280;46181;51.498;5.392;2023-02-28T11:44:47;102981.7;;;9.04;30.42871
59987;BME280;46181;51.498;5.392;2023-02-28T11:49:10;102991.3;;;9.15;30.59473
59987;BME280;46181;51.498;5.392;2023-02-28T11:58:23;102982.9;;;9.17;30.57422
59987;BME280;46181;51.498;5.392;2023-02-28T12:02:41;102981.9;;;9.26;30.56836
59987;BME280;46181;51.498;5.392;2023-02-28T12:07:07;102976.9;;;9.28;30.52441
59987;BME280;46181;51.498;5.392;2023-02-28T12:11:44;102979.6;;;9.28;30.7627
59987;BME280;46181;51.498;5.392;2023-02-28T12:20:42;102970.3;;;9.23;30.74805
59987;BME280;46181;51.498;5.392;2023-02-28T12:29:37;102972;;;9.38;30.93945
59987;BME280;46181;51.498;5.392;2023-02-28T12:34:06;102955.4;;;9.41;30.83984
59987;BME280;46181;51.498;5.392;2023-02-28T12:38:39;102949.8;;;9.44;31.00098
59987;BME280;46181;51.498;5.392;2023-02-28T12:43:06;102942.1;;;9.5;31.11719
59987;BME280;46181;51.498;5.392;2023-02-28T12:47:34;102940.6;;;9.6;30.70605
59987;BME280;46181;51.498;5.392;2023-02-28T12:52:04;102948.4;;;9.66;30.35938
59987;BME280;46181;51.498;5.392;2023-02-28T12:56:41;102935.5;;;9.64;30.0293
59987;BME280;46181;51.498;5.392;2023-02-28T13:01:21;102934.9;;;9.56;29.84277
59987;BME280;46181;51.498;5.392;2023-02-28T13:05:58;102923.7;;;9.56;30.13672
59987;BME280;46181;51.498;5.392;2023-02-28T13:10:05;102922.8;;;9.7;30.10156
59987;BME280;46181;51.498;5.392;2023-02-28T13:14:39;102919.1;;;9.69;30.1582
59987;BME280;46181;51.498;5.392;2023-02-28T13:19:19;102912.6;;;9.67;30.30371
59987;BME280;46181;51.498;5.392;2023-02-28T13:24:01;102904.3;;;9.72;30.125
59987;BME280;46181;51.498;5.392;2023-02-28T13:28:08;102901.3;;;9.83;30.16699
59987;BME280;46181;51.498;5.392;2023-02-28T13:32:54;102899.3;;;9.72;29.86426
59987;BME280;46181;51.498;5.392;2023-02-28T13:37:37;102893.2;;;9.75;30.22949
59987;BME280;46181;51.498;5.392;2023-02-28T13:41:46;102898.2;;;9.74;29.87695
59987;BME280;46181;51.498;5.392;2023-02-28T13:46:15;102903.6;;;9.74;30.17188
59987;BME280;46181;51.498;5.392;2023-02-28T13:50:37;102895.1;;;9.77;29.90137
59987;BME280;46181;51.498;5.392;2023-02-28T13:55:27;102886.8;;;9.67;29.97461
59987;BME280;46181;51.498;5.392;2023-02-28T13:59:38;102883.8;;;9.78;29.85742
59987;BME280;46181;51.498;5.392;2023-02-28T14:04:37;102874.4;;;9.67;29.6582
59987;BME280;46181;51.498;5.392;2023-02-28T14:08:34;102874.5;;;9.81;29.83691
59987;BME280;46181;51.498;5.392;2023-02-28T14:13:36;102872.4;;;9.85;29.71582
59987;BME280;46181;51.498;5.392;2023-02-28T14:17:34;102881.5;;;9.89;29.85352
59987;BME280;46181;51.498;5.392;2023-02-28T14:22:12;102872.7;;;9.85;29.71582
59987;BME280;46181;51.498;5.392;2023-02-28T14:26:49;102877.6;;;9.78;29.57422
59987;BME280;46181;51.498;5.392;2023-02-28T14:31:16;102868.6;;;9.69;29.52344
59987;BME280;46181;51.498;5.392;2023-02-28T14:35:49;102871.1;;;9.71;29.56934
59987;BME280;46181;51.498;5.392;2023-02-28T14:40:11;102868.7;;;9.68;29.68066
59987;BME280;46181;51.498;5.392;2023-02-28T14:44:35;102871.6;;;9.65;29.72461
59987;BME280;46181;51.498;5.392;2023-02-28T14:49:04;102863.2;;;9.66;29.83789
59987;BME280;46181;51.498;5.392;2023-02-28T14:53:38;102864.3;;;9.67;29.95215
59987;BME280;46181;51.498;5.392;2023-02-28T14:58:05;102863.9;;;9.69;30.16895
59987;BME280;46181;51.498;5.392;2023-02-28T15:02:35;102861;;;9.71;30.08008
59987;BME280;46181;51.498;5.392;2023-02-28T15:07:15;102854.2;;;9.56;30.15918
59987;BME280;46181;51.498;5.392;2023-02-28T15:11:34;102859;;;9.61;30.17383
59987;BME280;46181;51.498;5.392;2023-02-28T15:16:06;102862.9;;;9.55;30.4873
59987;BME280;46181;51.498;5.392;2023-02-28T15:20:34;102855.8;;;9.57;30.69238
59987;BME280;46181;51.498;5.392;2023-02-28T15:25:05;102850.8;;;9.55;30.75879
59987;BME280;46181;51.498;5.392;2023-02-28T15:29:37;102860.4;;;9.52;30.89355
59987;BME280;46181;51.498;5.392;2023-02-28T15:34:18;102857.2;;;9.44;31.06738
59987;BME280;46181;51.498;5.392;2023-02-28T15:38:35;102866.6;;;9.48;31.21777
59987;BME280;46181;51.498;5.392;2023-02-28T15:43:23;102876.3;;;9.37;31.40234
59987;BME280;46181;51.498;5.392;2023-02-28T15:47:35;102863.3;;;9.44;31.48633
59987;BME280;46181;51.498;5.392;2023-02-28T15:52:08;102859.1;;;9.4;31.46094
59987;BME280;46181;51.498;5.392;2023-02-28T15:56:38;102861.3;;;9.42;31.32715
59987;BME280;46181;51.498;5.392;2023-02-28T16:01:23;102864.5;;;9.33;31.34277
59987;BME280;46181;51.498;5.392;2023-02-28T16:05:35;102869.3;;;9.32;31.3877
59987;BME280;46181;51.498;5.392;2023-02-28T16:10:04;102863.7;;;9.3;31.55566
59987;BME280;46181;51.498;5.392;2023-02-28T16:14:35;102856.3;;;9.3;31.57813
59987;BME280;46181;51.498;5.392;2023-02-28T16:19:04;102855.5;;;9.27;31.83594
59987;BME280;46181;51.498;5.392;2023-02-28T16:23:34;102861.7;;;9.25;31.86816
59987;BME280;46181;51.498;5.392;2023-02-28T16:28:05;102868.3;;;9.18;31.88574
59987;BME280;46181;51.498;5.392;2023-02-28T16:32:34;102861;;;9.13;31.96191
59987;BME280;46181;51.498;5.392;2023-02-28T16:37:04;102863.8;;;9.11;32.1416
59987;BME280;46181;51.498;5.392;2023-02-28T16:41:35;102870.1;;;9.05;32.31738
59987;BME280;46181;51.498;5.392;2023-02-28T16:46:07;102876.4;;;8.97;32.52637
59987;BME280;46181;51.498;5.392;2023-02-28T16:50:35;102883.3;;;8.93;32.91797
59987;BME280;46181;51.498;5.392;2023-02-28T16:55:04;102883.5;;;8.87;32.91406
59987;BME280;46181;51.498;5.392;2023-02-28T16:59:35;102892.6;;;8.8;33.05566
59987;BME280;46181;51.498;5.392;2023-02-28T17:04:04;102892.6;;;8.74;33.16406
59987;BME280;46181;51.498;5.392;2023-02-28T17:08:34;102893.8;;;8.66;33.36035
59987;BME280;46181;51.498;5.392;2023-02-28T17:13:04;102898.1;;;8.59;33.60449
59987;BME280;46181;51.498;5.392;2023-02-28T17:17:34;102894.1;;;8.52;33.93652
59987;BME280;46181;51.498;5.392;2023-02-28T17:22:04;102905.7;;;8.46;34.22559
59987;BME280;46181;51.498;5.392;2023-02-28T17:26:34;102913.1;;;8.35;34.45313
59987;BME280;46181;51.498;5.392;2023-02-28T17:31:04;102919.6;;;8.28;34.75195
59987;BME280;46181;51.498;5.392;2023-02-28T17:35:34;102922.8;;;8.2;34.74609
59987;BME280;46181;51.498;5.392;2023-02-28T17:40:05;102934.8;;;8.1;35.04199
59987;BME280;46181;51.498;5.392;2023-02-28T17:44:34;102937.6;;;8.04;35.12793
59987;BME280;46181;51.498;5.392;2023-02-28T17:49:04;102938.7;;;8.01;35.24902
59987;BME280;46181;51.498;5.392;2023-02-28T17:53:34;102942.9;;;7.95;35.33496
59987;BME280;46181;51.498;5.392;2023-02-28T17:58:04;102951.6;;;7.83;35.5166
59987;BME280;46181;51.498;5.392;2023-02-28T18:02:34;102951.8;;;7.73;35.69922
59987;BME280;46181;51.498;5.392;2023-02-28T18:07:04;102955.1;;;7.65;35.92969
59987;BME280;46181;51.498;5.392;2023-02-28T18:11:34;102959.5;;;7.55;36.30371
59987;BME280;46181;51.498;5.392;2023-02-28T18:16:04;102954.8;;;7.45;36.35059
59987;BME280;46181;51.498;5.392;2023-02-28T18:20:34;102950.5;;;7.34;36.64551
59987;BME280;46181;51.498;5.392;2023-02-28T18:25:04;102951.7;;;7.28;36.86426
59987;BME280;46181;51.498;5.392;2023-02-28T18:29:35;102960.2;;;7.18;37.16016
59987;BME280;46181;51.498;5.392;2023-02-28T18:34:04;102955.8;;;7.12;37.49121
59987;BME280;46181;51.498;5.392;2023-02-28T18:38:34;102951.5;;;7.02;37.57227
59987;BME280;46181;51.498;5.392;2023-02-28T18:43:04;102950.3;;;6.92;37.80078
59987;BME280;46181;51.498;5.392;2023-02-28T18:47:34;102946.8;;;6.84;37.98438
59987;BME280;46181;51.498;5.392;2023-02-28T18:52:04;102952.6;;;6.77;38.24707
59987;BME280;46181;51.498;5.392;2023-02-28T18:56:34;102945.5;;;6.68;38.54102
59987;BME280;46181;51.498;5.392;2023-02-28T19:01:11;102943;;;6.6;38.68066
59987;BME280;46181;51.498;5.392;2023-02-28T19:05:35;102950.7;;;6.55;38.77637
59987;BME280;46181;51.498;5.392;2023-02-28T19:10:04;102958.8;;;6.5;38.99609
59987;BME280;46181;51.498;5.392;2023-02-28T19:14:34;102960.5;;;6.42;39.1582
59987;BME280;46181;51.498;5.392;2023-02-28T19:19:04;102958.4;;;6.38;39.28906
59987;BME280;46181;51.498;5.392;2023-02-28T19:23:34;102957.5;;;6.33;39.42969
59987;BME280;46181;51.498;5.392;2023-02-28T19:28:04;102962.6;;;6.3;39.5498
59987;BME280;46181;51.498;5.392;2023-02-28T19:32:34;102960.6;;;6.25;39.64648
59987;BME280;46181;51.498;5.392;2023-02-28T19:37:04;102966.6;;;6.2;39.74316
59987;BME280;46181;51.498;5.392;2023-02-28T19:41:34;102971.6;;;6.18;39.84277
59987;BME280;46181;51.498;5.392;2023-02-28T19:46:05;102970.9;;;6.09;40.05762
59987;BME280;46181;51.498;5.392;2023-02-28T19:50:34;102976.8;;;6.06;40.2002
59987;BME280;46181;51.498;5.392;2023-02-28T19:55:04;102978.5;;;6.06;40.32324
59987;BME280;46181;51.498;5.392;2023-02-28T19:59:34;102982.2;;;6.02;40.29688
59987;BME280;46181;51.498;5.392;2023-02-28T20:04:04;102986.4;;;6;40.2168
59987;BME280;46181;51.498;5.392;2023-02-28T20:13:04;102988.1;;;5.88;40.54199
59987;BME280;46181;51.498;5.392;2023-02-28T20:22:04;102986.7;;;5.79;40.52246
59987;BME280;46181;51.498;5.392;2023-02-28T20:26:34;102985.2;;;5.78;40.63281
59987;BME280;46181;51.498;5.392;2023-02-28T20:31:08;102987.3;;;5.75;40.73145
59987;BME280;46181;51.498;5.392;2023-02-28T20:35:34;102993.4;;;5.73;40.7959
59987;BME280;46181;51.498;5.392;2023-02-28T20:40:05;102991.2;;;5.69;40.97168
59987;BME280;46181;51.498;5.392;2023-02-28T20:44:34;102983.7;;;5.67;41.19336
59987;BME280;46181;51.498;5.392;2023-02-28T20:49:04;102979.7;;;5.65;41.26855
59987;BME280;46181;51.498;5.392;2023-02-28T20:53:35;102976.5;;;5.61;41.24414
59987;BME280;46181;51.498;5.392;2023-02-28T20:58:04;102977.6;;;5.59;41.29785
59987;BME280;46181;51.498;5.392;2023-02-28T21:02:34;102975.4;;;5.58;41.30664
59987;BME280;46181;51.498;5.392;2023-02-28T21:07:04;102982.2;;;5.59;41.43164
59987;BME280;46181;51.498;5.392;2023-02-28T21:11:35;102982.2;;;5.57;41.45215
59987;BME280;46181;51.498;5.392;2023-02-28T21:16:06;102980.5;;;5.58;41.53027
59987;BME280;46181;51.498;5.392;2023-02-28T21:20:34;102976.6;;;5.57;41.58594
59987;BME280;46181;51.498;5.392;2023-02-28T21:25:04;102980.8;;;5.55;41.85254
59987;BME280;46181;51.498;5.392;2023-02-28T21:29:34;102987.9;;;5.55;41.59473
59987;BME280;46181;51.498;5.392;2023-02-28T21:34:05;102986.9;;;5.51;41.78125
59987;BME280;46181;51.498;5.392;2023-02-28T21:38:34;102988.6;;;5.51;41.85938
59987;BME280;46181;51.498;5.392;2023-02-28T21:43:04;102986.6;;;5.5;41.9248
59987;BME280;46181;51.498;5.392;2023-02-28T21:47:36;102981.5;;;5.44;42.04297
59987;BME280;46181;51.498;5.392;2023-02-28T21:52:04;102981.4;;;5.43;42.27637
59987;BME280;46181;51.498;5.392;2023-02-28T21:56:35;102986.2;;;5.37;42.33789
59987;BME280;46181;51.498;5.392;2023-02-28T22:01:11;102984.3;;;5.29;42.65332
59987;BME280;46181;51.498;5.392;2023-02-28T22:05:34;102977.9;;;5.3;42.62109
59987;BME280;46181;51.498;5.392;2023-02-28T22:10:04;102976.5;;;5.23;42.68066
59987;BME280;46181;51.498;5.392;2023-02-28T22:14:34;102978.7;;;5.16;42.78613
59987;BME280;46181;51.498;5.392;2023-02-28T22:19:04;102978.4;;;5.11;43.07129
59987;BME280;46181;51.498;5.392;2023-02-28T22:23:34;102983.5;;;5.06;43.05566
59987;BME280;46181;51.498;5.392;2023-02-28T22:28:04;102989.1;;;5.02;43.16211
59987;BME280;46181;51.498;5.392;2023-02-28T22:32:34;102992.9;;;4.97;43.25879
59987;BME280;46181;51.498;5.392;2023-02-28T22:37:04;102993.6;;;4.95;43.3125
59987;BME280;46181;51.498;5.392;2023-02-28T22:41:34;102992.2;;;4.93;43.45508
59987;BME280;46181;51.498;5.392;2023-02-28T22:46:05;102990.4;;;4.91;43.63086
59987;BME280;46181;51.498;5.392;2023-02-28T22:50:34;102999;;;4.91;43.64258
59987;BME280;46181;51.498;5.392;2023-02-28T22:55:05;103003.3;;;4.9;43.74219
59987;BME280;46181;51.498;5.392;2023-02-28T22:59:34;103006.6;;;4.87;43.77246
59987;BME280;46181;51.498;5.392;2023-02-28T23:04:05;103000.1;;;4.81;43.78809
59987;BME280;46181;51.498;5.392;2023-02-28T23:08:34;103006.6;;;4.8;43.94336
59987;BME280;46181;51.498;5.392;2023-02-28T23:13:04;103001.5;;;4.77;43.98535
59987;BME280;46181;51.498;5.392;2023-02-28T23:17:34;103010.1;;;4.73;44.10352
59987;BME280;46181;51.498;5.392;2023-02-28T23:22:04;102999.6;;;4.65;44.2627
59987;BME280;46181;51.498;5.392;2023-02-28T23:26:34;102998.5;;;4.62;44.56055
59987;BME280;46181;51.498;5.392;2023-02-28T23:31:08;103002;;;4.58;44.73535
59987;BME280;46181;51.498;5.392;2023-02-28T23:35:34;102996.6;;;4.58;44.64648
59987;BME280;46181;51.498;5.392;2023-02-28T23:40:05;102994.7;;;4.57;44.85645
59987;BME280;46181;51.498;5.392;2023-02-28T23:44:34;102998;;;4.54;44.9209
59987;BME280;46181;51.498;5.392;2023-02-28T23:49:04;103006.1;;;4.64;45.41016
59987;BME280;46181;51.498;5.392;2023-02-28T23:53:38;103010.9;;;4.61;45.46289
59987;BME280;46181;51.498;5.392;2023-02-28T23:58:04;103010.5;;;4.63;45.35254
